createdAt,value
2023-10-29T00:00:58.362Z,100.00
2023-10-29T00:04:01.592Z,100.00
2023-10-29T00:07:05.066Z,100.00
2023-10-29T00:10:08.333Z,100.00
2023-10-29T00:13:11.182Z,100.00
2023-10-29T00:16:14.438Z,100.00
2023-10-29T00:19:17.044Z,100.00
2023-10-29T00:22:19.992Z,100.00
2023-10-29T00:25:23.433Z,100.00
2023-10-29T00:28:28.920Z,100.00
2023-10-29T00:31:31.582Z,100.00
2023-10-29T00:34:34.542Z,100.00
2023-10-29T00:37:37.324Z,100.00
2023-10-29T00:40:40.823Z,100.00
2023-10-29T00:43:43.838Z,100.00
2023-10-29T00:46:47.060Z,100.00
2023-10-29T00:49:49.694Z,100.00
2023-10-29T00:52:52.926Z,100.00
2023-10-29T00:55:55.868Z,100.00
2023-10-29T00:58:58.573Z,100.00
2023-10-29T01:02:01.280Z,100.00
2023-10-29T01:05:06.164Z,100.00
2023-10-29T01:08:09.154Z,100.00
2023-10-29T01:11:11.913Z,100.00
2023-10-29T01:14:14.685Z,100.00
2023-10-29T01:17:17.799Z,100.00
2023-10-29T01:20:20.751Z,100.00
2023-10-29T01:23:24.539Z,100.00
2023-10-29T01:26:27.435Z,100.00
2023-10-29T01:29:31.019Z,100.00
2023-10-29T01:32:34.048Z,100.00
2023-10-29T01:35:37.190Z,100.00
2023-10-29T01:38:39.916Z,100.00
2023-10-29T01:41:42.629Z,100.00
2023-10-29T01:44:45.533Z,100.00
2023-10-29T01:47:48.447Z,100.00
2023-10-29T01:50:51.645Z,100.00
2023-10-29T01:53:54.412Z,100.00
2023-10-29T01:56:56.902Z,100.00
2023-10-29T02:00:00.428Z,100.00
2023-10-29T02:03:03.077Z,100.00
2023-10-29T02:06:16.961Z,100.00
2023-10-29T02:09:19.930Z,100.00
2023-10-29T02:12:22.701Z,100.00
2023-10-29T02:15:29.966Z,100.00
2023-10-29T02:18:32.455Z,100.00
2023-10-29T02:21:36.007Z,100.00
2023-10-29T02:24:38.741Z,100.00
2023-10-29T02:27:42.232Z,100.00
2023-10-29T02:30:44.641Z,100.00
2023-10-29T02:33:47.922Z,100.00
2023-10-29T02:36:51.684Z,100.00
2023-10-29T02:39:55.497Z,100.00
2023-10-29T02:42:58.069Z,100.00
2023-10-29T02:46:01.603Z,100.00
2023-10-29T02:49:04.256Z,100.00
2023-10-29T02:52:07.667Z,100.00
2023-10-29T02:55:10.367Z,100.00
2023-10-29T02:58:14.017Z,100.00
2023-10-29T03:01:17.347Z,100.00
2023-10-29T03:04:20.533Z,100.00
2023-10-29T03:07:23.781Z,100.00
2023-10-29T03:10:26.978Z,100.00
2023-10-29T03:13:30.429Z,100.00
2023-10-29T03:16:33.375Z,100.00
2023-10-29T03:19:35.789Z,100.00
2023-10-29T03:22:38.894Z,100.00
2023-10-29T03:25:41.609Z,100.00
2023-10-29T03:28:44.413Z,100.00
2023-10-29T03:31:47.178Z,100.00
2023-10-29T03:34:49.919Z,100.00
2023-10-29T03:37:52.313Z,100.00
2023-10-29T03:40:55.276Z,100.00
2023-10-29T03:43:58.253Z,100.00
2023-10-29T03:47:01.225Z,100.00
2023-10-29T03:50:04.152Z,100.00
2023-10-29T03:53:07.992Z,100.00
2023-10-29T03:56:10.726Z,100.00
2023-10-29T03:59:13.703Z,100.00
2023-10-29T04:02:16.337Z,100.00
2023-10-29T04:05:19.322Z,100.00
2023-10-29T04:08:22.088Z,100.00
2023-10-29T04:11:24.833Z,100.00
2023-10-29T04:14:27.419Z,100.00
2023-10-29T04:17:30.699Z,100.00
2023-10-29T04:20:33.388Z,100.00
2023-10-29T04:23:37.777Z,100.00
2023-10-29T04:26:40.654Z,100.00
2023-10-29T04:29:43.680Z,100.00
2023-10-29T04:32:46.251Z,100.00
2023-10-29T04:35:49.092Z,100.00
2023-10-29T04:38:52.202Z,100.00
2023-10-29T04:41:55.127Z,100.00
2023-10-29T04:44:57.657Z,100.00
2023-10-29T04:48:00.494Z,100.00
2023-10-29T04:51:03.300Z,100.00
2023-10-29T04:54:06.404Z,100.00
2023-10-29T04:57:08.886Z,100.00
2023-10-29T05:00:12.209Z,100.00
2023-10-29T05:03:14.797Z,100.00
2023-10-29T05:06:21.891Z,100.00
2023-10-29T05:09:24.583Z,100.00
2023-10-29T05:12:27.662Z,100.00
2023-10-29T05:15:31.091Z,100.00
2023-10-29T05:18:34.213Z,100.00
2023-10-29T05:21:36.947Z,100.00
2023-10-29T05:24:39.939Z,100.00
2023-10-29T05:27:56.258Z,100.00
2023-10-29T05:30:59.290Z,100.00
2023-10-29T05:34:02.582Z,100.00
2023-10-29T05:37:05.336Z,100.00
2023-10-29T05:40:10.821Z,100.00
2023-10-29T05:43:13.778Z,100.00
2023-10-29T05:46:17.230Z,100.00
2023-10-29T05:49:20.024Z,100.00
2023-10-29T05:52:22.852Z,100.00
2023-10-29T05:55:26.063Z,100.00
2023-10-29T05:58:28.553Z,100.00
2023-10-29T06:01:31.397Z,100.00
2023-10-29T06:04:34.214Z,100.00
2023-10-29T06:07:38.399Z,100.00
2023-10-29T06:10:41.420Z,100.00
2023-10-29T06:13:45.662Z,100.00
2023-10-29T06:16:48.725Z,100.00
2023-10-29T06:19:51.518Z,100.00
2023-10-29T06:22:54.526Z,100.00
2023-10-29T06:25:57.007Z,100.00
2023-10-29T06:28:59.976Z,100.00
2023-10-29T06:32:02.700Z,100.00
2023-10-29T06:35:06.110Z,98.73
2023-10-29T06:38:08.637Z,95.00
2023-10-29T06:41:11.580Z,95.71
2023-10-29T06:44:14.263Z,90.98
2023-10-29T06:47:16.997Z,87.24
2023-10-29T06:50:19.765Z,83.02
2023-10-29T06:53:22.830Z,82.56
2023-10-29T06:56:25.585Z,79.63
2023-10-29T06:59:31.898Z,80.86
2023-10-29T07:02:34.754Z,79.96
2023-10-29T07:05:50.608Z,78.11
2023-10-29T07:09:06.375Z,80.59
2023-10-29T07:12:09.243Z,78.84
2023-10-29T07:15:14.677Z,78.35
2023-10-29T07:18:17.718Z,75.41
2023-10-29T07:21:20.705Z,73.76
2023-10-29T07:24:23.191Z,72.71
2023-10-29T07:27:25.941Z,71.51
2023-10-29T07:30:28.918Z,69.15
2023-10-29T07:33:31.820Z,69.32
2023-10-29T07:36:34.648Z,65.85
2023-10-29T07:39:38.060Z,65.90
2023-10-29T07:42:40.745Z,64.03
2023-10-29T07:45:43.465Z,65.41
2023-10-29T07:48:45.880Z,63.71
2023-10-29T07:51:52.023Z,63.63
2023-10-29T07:54:54.672Z,64.37
2023-10-29T07:57:57.482Z,63.05
2023-10-29T08:01:03.210Z,65.24
2023-10-29T08:04:06.233Z,64.72
2023-10-29T08:07:08.859Z,61.67
2023-10-29T08:10:12.840Z,60.58
2023-10-29T08:13:15.533Z,60.50
2023-10-29T08:16:21.777Z,62.42
2023-10-29T08:20:15.221Z,66.92
2023-10-29T08:23:23.911Z,68.98
2023-10-29T08:26:43.911Z,68.25
2023-10-29T08:29:59.347Z,68.25
2023-10-29T08:33:24.055Z,64.28
2023-10-29T08:36:31.859Z,60.91
2023-10-29T08:39:34.639Z,63.83
2023-10-29T08:42:48.694Z,62.82
2023-10-29T08:45:54.422Z,61.35
2023-10-29T08:48:57.277Z,58.92
2023-10-29T08:52:00.050Z,60.17
2023-10-29T08:55:03.224Z,57.69
2023-10-29T08:58:05.999Z,57.54
2023-10-29T09:01:12.836Z,60.47
2023-10-29T09:04:16.344Z,59.72
2023-10-29T09:07:19.545Z,56.91
2023-10-29T09:10:22.069Z,57.93
2023-10-29T09:13:25.251Z,56.01
2023-10-29T09:16:27.774Z,54.09
2023-10-29T09:19:30.535Z,53.32
2023-10-29T09:22:33.880Z,54.83
2023-10-29T09:25:44.357Z,55.01
2023-10-29T09:28:54.841Z,52.42
2023-10-29T09:31:57.927Z,52.31
2023-10-29T09:35:00.600Z,52.90
2023-10-29T09:38:04.750Z,53.41
2023-10-29T09:41:08.747Z,50.93
2023-10-29T09:44:19.817Z,52.34
2023-10-29T09:47:24.353Z,51.67
2023-10-29T09:50:30.132Z,53.43
2023-10-29T09:53:36.282Z,53.76
2023-10-29T09:56:40.839Z,53.04
2023-10-29T09:59:43.291Z,51.97
2023-10-29T10:02:53.977Z,51.70
2023-10-29T10:05:58.825Z,53.69
2023-10-29T10:09:03.411Z,51.87
2023-10-29T10:12:06.844Z,50.47
2023-10-29T10:15:10.304Z,50.00
2023-10-29T10:18:16.096Z,50.39
2023-10-29T10:21:24.524Z,51.12
2023-10-29T10:24:49.229Z,51.29
2023-10-29T10:27:57.052Z,54.55
2023-10-29T10:31:15.369Z,53.43
2023-10-29T10:34:19.954Z,53.72
2023-10-29T10:37:26.068Z,55.63
2023-10-29T10:40:28.707Z,53.36
2023-10-29T10:43:31.777Z,54.92
2023-10-29T10:46:46.945Z,56.31
2023-10-29T10:49:51.109Z,56.65
2023-10-29T10:52:54.158Z,57.87
2023-10-29T10:56:19.458Z,58.20
2023-10-29T10:59:35.041Z,59.26
2023-10-29T11:02:42.919Z,59.63
2023-10-29T11:05:50.068Z,59.74
2023-10-29T11:08:54.475Z,60.64
2023-10-29T11:12:03.825Z,61.14
2023-10-29T11:15:23.868Z,60.72
2023-10-29T11:22:30.508Z,60.87
2023-10-29T11:25:38.975Z,61.05
2023-10-29T11:29:06.744Z,62.44
2023-10-29T11:32:27.206Z,61.46
2023-10-29T11:35:36.300Z,61.93
2023-10-29T11:38:40.470Z,60.89
2023-10-29T11:41:45.827Z,60.26
2023-10-29T11:44:48.836Z,60.07
2023-10-29T11:48:13.327Z,60.11
2023-10-29T11:51:16.105Z,60.37
2023-10-29T11:54:19.109Z,61.28
2023-10-29T11:57:23.892Z,61.88
2023-10-29T12:00:41.781Z,61.65
2023-10-29T12:03:51.700Z,62.29
2023-10-29T12:06:55.797Z,62.20
2023-10-29T12:10:07.278Z,62.61
2023-10-29T12:13:13.077Z,62.04
2023-10-29T12:16:23.515Z,62.39
2023-10-29T12:19:47.311Z,63.26
2023-10-29T12:22:56.162Z,61.92
2023-10-29T12:26:07.292Z,61.93
2023-10-29T12:29:10.568Z,62.58
2023-10-29T12:32:20.330Z,63.34
2023-10-29T12:35:35.416Z,63.53
2023-10-29T12:38:39.396Z,63.60
2023-10-29T12:41:42.502Z,62.83
2023-10-29T12:45:05.670Z,62.36
2023-10-29T12:48:15.804Z,62.95
2023-10-29T12:51:24.794Z,63.58
2023-10-29T12:54:29.026Z,63.60
2023-10-29T12:57:31.484Z,63.99
2023-10-29T13:00:46.193Z,63.50
2023-10-29T13:04:06.466Z,64.51
2023-10-29T13:07:25.645Z,64.53
2023-10-29T13:10:28.124Z,64.54
2023-10-29T13:13:30.960Z,65.31
2023-10-29T13:16:33.453Z,65.73
2023-10-29T13:19:39.762Z,66.25
2023-10-29T13:23:02.118Z,66.35
2023-10-29T13:26:13.862Z,66.05
2023-10-29T13:29:26.047Z,66.12
2023-10-29T13:32:28.787Z,65.89
2023-10-29T13:35:39.049Z,66.13
2023-10-29T13:38:44.801Z,65.25
2023-10-29T13:41:53.017Z,65.67
2023-10-29T13:44:57.592Z,65.34
2023-10-29T13:48:08.273Z,64.71
2023-10-29T13:51:13.772Z,64.45
2023-10-29T13:54:19.594Z,64.32
2023-10-29T13:57:24.945Z,66.18
2023-10-29T14:00:30.655Z,65.86
2023-10-29T14:03:35.778Z,66.17
2023-10-29T14:06:38.529Z,66.71
2023-10-29T14:09:43.860Z,66.75
2023-10-29T14:12:47.723Z,67.23
2023-10-29T14:15:50.969Z,67.91
2023-10-29T14:18:53.922Z,68.14
2023-10-29T14:21:57.436Z,68.33
2023-10-29T14:25:02.662Z,68.02
2023-10-29T14:28:05.781Z,67.73
2023-10-29T14:31:08.291Z,66.91
2023-10-29T14:34:11.129Z,66.98
2023-10-29T14:37:14.487Z,67.49
2023-10-29T14:40:17.279Z,66.77
2023-10-29T14:43:22.810Z,67.46
2023-10-29T14:46:26.086Z,67.91
2023-10-29T14:49:28.558Z,66.11
2023-10-29T14:52:31.337Z,67.23
2023-10-29T14:55:34.366Z,67.27
2023-10-29T14:58:37.731Z,67.92
2023-10-29T15:01:41.427Z,68.48
2023-10-29T15:04:44.587Z,69.38
2023-10-29T15:07:47.264Z,70.50
2023-10-29T15:10:54.422Z,70.47
2023-10-29T15:13:57.140Z,70.84
2023-10-29T15:16:59.991Z,71.28
2023-10-29T15:20:04.756Z,71.51
2023-10-29T15:23:07.783Z,72.09
2023-10-29T15:26:15.807Z,72.82
2023-10-29T15:29:18.873Z,73.76
2023-10-29T15:32:21.351Z,74.40
2023-10-29T15:35:24.375Z,75.05
2023-10-29T15:38:26.948Z,75.68
2023-10-29T15:41:29.761Z,75.79
2023-10-29T15:44:32.963Z,76.19
2023-10-29T15:47:36.019Z,75.87
2023-10-29T15:50:39.018Z,76.67
2023-10-29T15:53:42.835Z,76.40
2023-10-29T15:56:46.160Z,76.57
2023-10-29T15:59:49.896Z,77.01
2023-10-29T16:02:52.862Z,77.14
2023-10-29T16:05:55.867Z,78.03
2023-10-29T16:08:58.680Z,78.49
2023-10-29T16:12:09.117Z,79.41
2023-10-29T16:15:12.397Z,79.37
2023-10-29T16:18:16.040Z,79.37
2023-10-29T16:21:18.576Z,80.57
2023-10-29T16:24:21.402Z,80.64
2023-10-29T16:27:25.932Z,81.36
2023-10-29T16:30:30.587Z,81.96
2023-10-29T16:33:33.438Z,82.42
2023-10-29T16:36:36.719Z,83.17
2023-10-29T16:39:39.670Z,83.01
2023-10-29T16:42:42.362Z,82.30
2023-10-29T16:45:45.890Z,83.35
2023-10-29T16:48:49.399Z,83.43
2023-10-29T16:51:56.695Z,85.22
2023-10-29T16:54:59.408Z,84.12
2023-10-29T16:58:02.661Z,83.09
2023-10-29T17:01:06.795Z,83.08
2023-10-29T17:04:09.343Z,82.50
2023-10-29T17:07:13.371Z,82.32
2023-10-29T17:10:16.036Z,81.78
2023-10-29T17:13:19.103Z,81.79
2023-10-29T17:16:21.667Z,81.69
2023-10-29T17:19:24.736Z,81.17
2023-10-29T17:22:28.993Z,80.21
2023-10-29T17:25:36.377Z,80.08
2023-10-29T17:28:40.380Z,79.73
2023-10-29T17:31:43.380Z,79.75
2023-10-29T17:34:45.953Z,79.92
2023-10-29T17:37:49.658Z,80.28
2023-10-29T17:40:52.393Z,80.22
2023-10-29T17:43:55.774Z,80.52
2023-10-29T17:46:59.444Z,80.74
2023-10-29T17:50:02.239Z,81.52
2023-10-29T17:53:05.111Z,81.70
2023-10-29T17:56:07.955Z,82.19
2023-10-29T17:59:10.679Z,82.31
2023-10-29T18:02:13.867Z,82.60
2023-10-29T18:05:16.888Z,82.74
2023-10-29T18:08:20.575Z,82.65
2023-10-29T18:11:25.830Z,82.72
2023-10-29T18:14:28.676Z,83.26
2023-10-29T18:17:33.128Z,82.90
2023-10-29T18:20:37.325Z,83.72
2023-10-29T18:23:40.309Z,84.17
2023-10-29T18:26:43.358Z,84.57
2023-10-29T18:29:47.567Z,84.17
2023-10-29T18:32:50.528Z,84.16
2023-10-29T18:35:53.681Z,84.81
2023-10-29T18:38:57.916Z,84.07
2023-10-29T18:42:01.672Z,84.28
2023-10-29T18:45:06.205Z,84.48
2023-10-29T18:48:09.318Z,85.49
2023-10-29T18:51:12.214Z,85.86
2023-10-29T18:54:15.231Z,85.58
2023-10-29T18:57:19.232Z,86.17
2023-10-29T19:00:22.433Z,87.33
2023-10-29T19:03:25.435Z,87.77
2023-10-29T19:06:28.701Z,88.68
2023-10-29T19:09:35.704Z,88.20
2023-10-29T19:12:38.944Z,88.50
2023-10-29T19:15:41.918Z,88.81
2023-10-29T19:18:44.913Z,88.92
2023-10-29T19:21:47.688Z,89.28
2023-10-29T19:24:51.148Z,88.69
2023-10-29T19:27:54.277Z,88.20
2023-10-29T19:31:20.499Z,87.80
2023-10-29T19:34:20.262Z,87.34
2023-10-29T19:37:23.315Z,86.96
2023-10-29T19:40:26.364Z,86.67
2023-10-29T19:43:30.155Z,86.90
2023-10-29T19:46:33.296Z,87.08
2023-10-29T19:49:36.730Z,86.81
2023-10-29T19:52:39.624Z,86.51
2023-10-29T19:55:42.662Z,86.43
2023-10-29T19:58:45.746Z,87.22
2023-10-29T20:01:48.951Z,87.41
2023-10-29T20:04:53.741Z,87.30
2023-10-29T20:07:57.117Z,87.45
2023-10-29T20:11:11.379Z,87.97
2023-10-29T20:14:14.841Z,87.91
2023-10-29T20:17:17.906Z,88.47
2023-10-29T20:20:20.366Z,88.07
2023-10-29T20:23:24.878Z,87.71
2023-10-29T20:26:28.904Z,86.99
2023-10-29T20:29:31.959Z,87.55
2023-10-29T20:32:35.170Z,87.62
2023-10-29T20:35:41.772Z,87.53
2023-10-29T20:38:44.369Z,87.21
2023-10-29T20:41:47.600Z,86.82
2023-10-29T20:44:50.564Z,87.05
2023-10-29T20:47:53.712Z,86.87
2023-10-29T20:50:56.886Z,86.51
2023-10-29T20:53:59.952Z,86.26
2023-10-29T20:57:03.517Z,86.37
2023-10-29T21:00:07.965Z,86.99
2023-10-29T21:03:10.824Z,87.01
2023-10-29T21:06:16.619Z,86.60
2023-10-29T21:09:19.982Z,86.71
2023-10-29T21:12:22.797Z,86.94
2023-10-29T21:15:26.910Z,87.00
2023-10-29T21:18:30.512Z,87.14
2023-10-29T21:21:33.312Z,87.26
2023-10-29T21:24:36.463Z,86.75
2023-10-29T21:27:39.317Z,86.98
2023-10-29T21:30:45.352Z,86.34
2023-10-29T21:33:48.075Z,86.12
2023-10-29T21:36:50.887Z,86.50
2023-10-29T21:39:53.808Z,85.89
2023-10-29T21:42:56.830Z,85.70
2023-10-29T21:46:09.880Z,85.80
2023-10-29T21:49:12.817Z,86.01
2023-10-29T21:52:16.558Z,85.70
2023-10-29T21:55:20.123Z,85.66
2023-10-29T21:58:23.167Z,85.18
2023-10-29T22:01:25.947Z,85.70
2023-10-29T22:04:31.599Z,85.96
2023-10-29T22:07:34.153Z,86.15
2023-10-29T22:10:37.082Z,86.67
2023-10-29T22:13:40.927Z,86.83
2023-10-29T22:16:43.710Z,87.27
2023-10-29T22:19:46.224Z,87.17
2023-10-29T22:22:49.173Z,86.83
2023-10-29T22:25:51.861Z,86.43
2023-10-29T22:28:54.816Z,86.43
2023-10-29T22:31:57.506Z,86.41
2023-10-29T22:35:00.311Z,86.37
2023-10-29T22:38:05.099Z,85.96
2023-10-29T22:41:12.439Z,85.75
2023-10-29T22:44:15.054Z,86.23
2023-10-29T22:47:18.001Z,85.80
2023-10-29T22:50:20.778Z,85.14
2023-10-29T22:53:23.780Z,85.19
2023-10-29T22:56:26.229Z,84.56
2023-10-29T22:59:28.973Z,84.93
2023-10-29T23:02:31.430Z,84.45
2023-10-29T23:05:35.184Z,84.54
2023-10-29T23:08:37.965Z,84.80
2023-10-29T23:11:41.004Z,84.99
2023-10-29T23:14:45.632Z,85.17
2023-10-29T23:17:48.518Z,84.60
2023-10-29T23:20:51.449Z,84.81
2023-10-29T23:23:55.626Z,84.83
2023-10-29T23:26:58.331Z,85.04
2023-10-29T23:30:01.124Z,85.39
2023-10-29T23:33:04.243Z,85.77
2023-10-29T23:36:07.679Z,85.65
2023-10-29T23:39:10.882Z,86.13
2023-10-29T23:42:13.875Z,86.40
2023-10-29T23:45:16.550Z,85.93
2023-10-29T23:48:19.331Z,86.12
2023-10-29T23:51:21.949Z,86.00
2023-10-29T23:54:24.930Z,86.18
2023-10-29T23:57:27.911Z,86.01
